sensor_id;sensor_type;location;lat;lon;timestamp;temperature;humidity
790;DHT22;378;48.844;9.156;2024-02-16T00:00:58;10.70;99.90
790;DHT22;378;48.844;9.156;2024-02-16T00:03:25;10.60;99.90
790;DHT22;378;48.844;9.156;2024-02-16T00:05:52;10.60;99.90
790;DHT22;378;48.844;9.156;2024-02-16T00:08:19;10.50;99.90
790;DHT22;378;48.844;9.156;2024-02-16T00:10:46;10.40;99.90
790;DHT22;378;48.844;9.156;2024-02-16T00:13:14;10.40;99.90
790;DHT22;378;48.844;9.156;2024-02-16T00:15:42;10.40;99.90
790;DHT22;378;48.844;9.156;2024-02-16T00:18:09;10.50;99.90
790;DHT22;378;48.844;9.156;2024-02-16T00:20:35;10.50;99.90
790;DHT22;378;48.844;9.156;2024-02-16T00:23:02;10.50;99.90
790;DHT22;378;48.844;9.156;2024-02-16T00:25:30;10.50;99.90
790;DHT22;378;48.844;9.156;2024-02-16T00:27:56;10.50;99.90
790;DHT22;378;48.844;9.156;2024-02-16T00:30:23;10.50;99.90
790;DHT22;378;48.844;9.156;2024-02-16T00:32:51;10.40;99.90
790;DHT22;378;48.844;9.156;2024-02-16T00:35:18;10.40;99.90
790;DHT22;378;48.844;9.156;2024-02-16T00:37:45;10.40;99.90
790;DHT22;378;48.844;9.156;2024-02-16T00:40:12;10.40;99.90
790;DHT22;378;48.844;9.156;2024-02-16T00:42:39;10.60;99.90
790;DHT22;378;48.844;9.156;2024-02-16T00:45:07;10.60;99.90
790;DHT22;378;48.844;9.156;2024-02-16T00:47:34;10.60;99.90
790;DHT22;378;48.844;9.156;2024-02-16T00:50:02;10.60;99.90
790;DHT22;378;48.844;9.156;2024-02-16T00:52:30;10.50;99.90
790;DHT22;378;48.844;9.156;2024-02-16T00:54:57;10.50;99.90
790;DHT22;378;48.844;9.156;2024-02-16T00:57:24;10.50;99.90
790;DHT22;378;48.844;9.156;2024-02-16T00:59:51;10.50;99.90
790;DHT22;378;48.844;9.156;2024-02-16T01:02:18;10.50;99.90
790;DHT22;378;48.844;9.156;2024-02-16T01:04:45;10.60;99.90
790;DHT22;378;48.844;9.156;2024-02-16T01:07:16;10.60;99.90
790;DHT22;378;48.844;9.156;2024-02-16T01:09:43;10.60;99.90
790;DHT22;378;48.844;9.156;2024-02-16T01:12:10;10.60;99.90
790;DHT22;378;48.844;9.156;2024-02-16T01:14:37;10.50;99.90
790;DHT22;378;48.844;9.156;2024-02-16T01:17:04;10.50;99.90
790;DHT22;378;48.844;9.156;2024-02-16T01:19:30;10.60;99.90
790;DHT22;378;48.844;9.156;2024-02-16T01:21:58;10.60;99.90
790;DHT22;378;48.844;9.156;2024-02-16T01:24:27;10.60;99.90
790;DHT22;378;48.844;9.156;2024-02-16T01:26:57;10.60;99.90
790;DHT22;378;48.844;9.156;2024-02-16T01:29:24;10.60;99.90
790;DHT22;378;48.844;9.156;2024-02-16T01:31:52;10.60;99.90
790;DHT22;378;48.844;9.156;2024-02-16T01:34:18;10.60;99.90
790;DHT22;378;48.844;9.156;2024-02-16T01:36:45;10.60;99.90
790;DHT22;378;48.844;9.156;2024-02-16T01:39:12;10.60;99.90
790;DHT22;378;48.844;9.156;2024-02-16T01:41:40;10.60;99.90
790;DHT22;378;48.844;9.156;2024-02-16T01:44:07;10.60;99.90
790;DHT22;378;48.844;9.156;2024-02-16T01:46:34;10.60;99.90
790;DHT22;378;48.844;9.156;2024-02-16T01:49:01;10.60;99.90
790;DHT22;378;48.844;9.156;2024-02-16T01:51:29;10.60;99.90
790;DHT22;378;48.844;9.156;2024-02-16T01:53:56;10.60;99.90
790;DHT22;378;48.844;9.156;2024-02-16T01:56:23;10.60;99.90
790;DHT22;378;48.844;9.156;2024-02-16T01:58:53;10.60;99.90
790;DHT22;378;48.844;9.156;2024-02-16T02:01:20;10.60;99.90
790;DHT22;378;48.844;9.156;2024-02-16T02:03:48;10.60;99.90
790;DHT22;378;48.844;9.156;2024-02-16T02:06:14;10.60;99.90
790;DHT22;378;48.844;9.156;2024-02-16T02:08:41;10.60;99.90
790;DHT22;378;48.844;9.156;2024-02-16T02:11:08;10.70;99.90
790;DHT22;378;48.844;9.156;2024-02-16T02:13:35;10.70;99.90
790;DHT22;378;48.844;9.156;2024-02-16T02:16:06;10.60;99.90
790;DHT22;378;48.844;9.156;2024-02-16T02:18:33;10.70;99.90
790;DHT22;378;48.844;9.156;2024-02-16T02:20:59;10.70;99.90
790;DHT22;378;48.844;9.156;2024-02-16T02:23:28;10.70;99.90
790;DHT22;378;48.844;9.156;2024-02-16T02:25:54;10.60;99.90
790;DHT22;378;48.844;9.156;2024-02-16T02:28:21;10.60;99.90
790;DHT22;378;48.844;9.156;2024-02-16T02:30:50;10.60;99.90
790;DHT22;378;48.844;9.156;2024-02-16T02:33:17;10.50;99.90
790;DHT22;378;48.844;9.156;2024-02-16T02:35:45;10.50;99.90
790;DHT22;378;48.844;9.156;2024-02-16T02:38:12;10.50;99.90
790;DHT22;378;48.844;9.156;2024-02-16T02:40:41;10.50;99.90
790;DHT22;378;48.844;9.156;2024-02-16T02:43:07;10.50;99.90
790;DHT22;378;48.844;9.156;2024-02-16T02:45:34;10.40;99.90
790;DHT22;378;48.844;9.156;2024-02-16T02:48:01;10.30;99.90
790;DHT22;378;48.844;9.156;2024-02-16T02:50:28;10.30;99.90
790;DHT22;378;48.844;9.156;2024-02-16T02:52:56;10.30;99.90
790;DHT22;378;48.844;9.156;2024-02-16T02:55:22;10.20;99.90
790;DHT22;378;48.844;9.156;2024-02-16T02:57:50;10.20;99.90
790;DHT22;378;48.844;9.156;2024-02-16T03:00:17;10.20;99.90
790;DHT22;378;48.844;9.156;2024-02-16T03:02:44;10.20;99.90
790;DHT22;378;48.844;9.156;2024-02-16T03:05:12;10.20;99.90
790;DHT22;378;48.844;9.156;2024-02-16T03:07:39;10.20;99.90
790;DHT22;378;48.844;9.156;2024-02-16T03:10:07;10.20;99.90
790;DHT22;378;48.844;9.156;2024-02-16T03:12:35;10.20;99.90
790;DHT22;378;48.844;9.156;2024-02-16T03:15:03;10.20;99.90
790;DHT22;378;48.844;9.156;2024-02-16T03:17:30;10.20;99.90
790;DHT22;378;48.844;9.156;2024-02-16T03:19:57;10.20;99.90
790;DHT22;378;48.844;9.156;2024-02-16T03:22:24;10.20;99.90
790;DHT22;378;48.844;9.156;2024-02-16T03:24:50;10.20;99.90
790;DHT22;378;48.844;9.156;2024-02-16T03:27:17;10.20;99.90
790;DHT22;378;48.844;9.156;2024-02-16T03:29:44;10.20;99.90
790;DHT22;378;48.844;9.156;2024-02-16T03:32:12;10.20;99.90
790;DHT22;378;48.844;9.156;2024-02-16T03:34:39;10.20;99.90
790;DHT22;378;48.844;9.156;2024-02-16T03:37:06;10.20;99.90
790;DHT22;378;48.844;9.156;2024-02-16T03:39:34;10.20;99.90
790;DHT22;378;48.844;9.156;2024-02-16T03:42:00;10.20;99.90
790;DHT22;378;48.844;9.156;2024-02-16T03:44:27;10.20;99.90
790;DHT22;378;48.844;9.156;2024-02-16T03:46:54;10.20;99.90
790;DHT22;378;48.844;9.156;2024-02-16T03:49:22;10.20;99.90
790;DHT22;378;48.844;9.156;2024-02-16T03:51:49;10.20;99.90
790;DHT22;378;48.844;9.156;2024-02-16T03:54:16;10.20;99.90
790;DHT22;378;48.844;9.156;2024-02-16T03:56:42;10.20;99.90
790;DHT22;378;48.844;9.156;2024-02-16T03:59:10;10.20;99.90
790;DHT22;378;48.844;9.156;2024-02-16T04:01:37;10.20;99.90
790;DHT22;378;48.844;9.156;2024-02-16T04:04:04;10.10;99.90
790;DHT22;378;48.844;9.156;2024-02-16T04:06:32;10.20;99.90
790;DHT22;378;48.844;9.156;2024-02-16T04:08:59;10.20;99.90
790;DHT22;378;48.844;9.156;2024-02-16T04:11:26;10.20;99.90
790;DHT22;378;48.844;9.156;2024-02-16T04:13:54;10.20;99.90
790;DHT22;378;48.844;9.156;2024-02-16T04:16:21;10.20;99.90
790;DHT22;378;48.844;9.156;2024-02-16T04:18:50;10.20;99.90
790;DHT22;378;48.844;9.156;2024-02-16T04:21:17;10.30;99.90
790;DHT22;378;48.844;9.156;2024-02-16T04:23:45;10.30;99.90
790;DHT22;378;48.844;9.156;2024-02-16T04:26:12;10.30;99.90
790;DHT22;378;48.844;9.156;2024-02-16T04:28:39;10.30;99.90
790;DHT22;378;48.844;9.156;2024-02-16T04:31:06;10.30;99.90
790;DHT22;378;48.844;9.156;2024-02-16T04:33:33;10.30;99.90
790;DHT22;378;48.844;9.156;2024-02-16T04:36:00;10.20;99.90
790;DHT22;378;48.844;9.156;2024-02-16T04:38:26;10.20;99.90
790;DHT22;378;48.844;9.156;2024-02-16T04:40:54;10.20;99.90
790;DHT22;378;48.844;9.156;2024-02-16T04:43:21;10.20;99.90
790;DHT22;378;48.844;9.156;2024-02-16T04:45:48;10.20;99.90
790;DHT22;378;48.844;9.156;2024-02-16T04:48:14;10.20;99.90
790;DHT22;378;48.844;9.156;2024-02-16T04:50:41;10.30;99.90
790;DHT22;378;48.844;9.156;2024-02-16T04:53:11;10.30;99.90
790;DHT22;378;48.844;9.156;2024-02-16T04:55:37;10.40;99.90
790;DHT22;378;48.844;9.156;2024-02-16T04:58:05;10.40;99.90
790;DHT22;378;48.844;9.156;2024-02-16T05:00:34;10.30;99.90
790;DHT22;378;48.844;9.156;2024-02-16T05:03:01;10.30;99.90
790;DHT22;378;48.844;9.156;2024-02-16T05:05:28;10.30;99.90
790;DHT22;378;48.844;9.156;2024-02-16T05:07:56;10.30;99.90
790;DHT22;378;48.844;9.156;2024-02-16T05:10:23;10.30;99.90
790;DHT22;378;48.844;9.156;2024-02-16T05:12:49;10.40;99.90
790;DHT22;378;48.844;9.156;2024-02-16T05:15:18;10.30;99.90
790;DHT22;378;48.844;9.156;2024-02-16T05:17:47;10.40;99.90
790;DHT22;378;48.844;9.156;2024-02-16T05:20:18;10.40;99.90
790;DHT22;378;48.844;9.156;2024-02-16T05:22:45;10.40;99.90
790;DHT22;378;48.844;9.156;2024-02-16T05:25:12;10.40;99.90
790;DHT22;378;48.844;9.156;2024-02-16T05:27:39;10.30;99.90
790;DHT22;378;48.844;9.156;2024-02-16T05:30:08;10.30;99.90
790;DHT22;378;48.844;9.156;2024-02-16T05:32:37;10.30;99.90
790;DHT22;378;48.844;9.156;2024-02-16T05:35:04;10.30;99.90
790;DHT22;378;48.844;9.156;2024-02-16T05:37:37;10.20;99.90
790;DHT22;378;48.844;9.156;2024-02-16T05:40:07;10.30;99.90
790;DHT22;378;48.844;9.156;2024-02-16T05:42:45;10.30;99.90
790;DHT22;378;48.844;9.156;2024-02-16T05:45:12;10.30;99.90
790;DHT22;378;48.844;9.156;2024-02-16T05:47:41;10.30;99.90
790;DHT22;378;48.844;9.156;2024-02-16T05:50:08;10.30;99.90
790;DHT22;378;48.844;9.156;2024-02-16T05:52:37;10.30;99.90
790;DHT22;378;48.844;9.156;2024-02-16T05:55:05;10.30;99.90
790;DHT22;378;48.844;9.156;2024-02-16T05:57:32;10.30;99.90
790;DHT22;378;48.844;9.156;2024-02-16T06:00:00;10.30;99.90
790;DHT22;378;48.844;9.156;2024-02-16T06:02:29;10.20;99.90
790;DHT22;378;48.844;9.156;2024-02-16T06:04:57;10.20;99.90
790;DHT22;378;48.844;9.156;2024-02-16T06:07:24;10.20;99.90
790;DHT22;378;48.844;9.156;2024-02-16T06:09:51;10.20;99.90
790;DHT22;378;48.844;9.156;2024-02-16T06:12:19;10.20;99.90
790;DHT22;378;48.844;9.156;2024-02-16T06:14:47;10.20;99.90
790;DHT22;378;48.844;9.156;2024-02-16T06:17:19;10.20;99.90
790;DHT22;378;48.844;9.156;2024-02-16T06:19:45;10.20;99.90
790;DHT22;378;48.844;9.156;2024-02-16T06:22:14;10.10;99.90
790;DHT22;378;48.844;9.156;2024-02-16T06:24:40;10.20;99.90
790;DHT22;378;48.844;9.156;2024-02-16T06:27:07;10.20;99.90
790;DHT22;378;48.844;9.156;2024-02-16T06:29:34;10.10;99.90
790;DHT22;378;48.844;9.156;2024-02-16T06:32:01;10.10;99.90
790;DHT22;378;48.844;9.156;2024-02-16T06:34:30;10.10;99.90
790;DHT22;378;48.844;9.156;2024-02-16T06:36:57;10.00;99.90
790;DHT22;378;48.844;9.156;2024-02-16T06:39:25;10.00;99.90
790;DHT22;378;48.844;9.156;2024-02-16T06:41:51;10.00;99.90
790;DHT22;378;48.844;9.156;2024-02-16T06:44:18;10.00;99.90
790;DHT22;378;48.844;9.156;2024-02-16T06:46:45;10.00;99.90
790;DHT22;378;48.844;9.156;2024-02-16T06:49:14;9.90;99.90
790;DHT22;378;48.844;9.156;2024-02-16T06:51:40;9.90;99.90
790;DHT22;378;48.844;9.156;2024-02-16T06:54:07;9.90;99.90
790;DHT22;378;48.844;9.156;2024-02-16T06:56:36;9.90;99.90
790;DHT22;378;48.844;9.156;2024-02-16T06:59:02;9.90;99.90
790;DHT22;378;48.844;9.156;2024-02-16T07:01:29;9.90;99.90
790;DHT22;378;48.844;9.156;2024-02-16T07:03:56;9.90;99.90
790;DHT22;378;48.844;9.156;2024-02-16T07:06:23;9.90;99.90
790;DHT22;378;48.844;9.156;2024-02-16T07:08:50;10.00;99.90
790;DHT22;378;48.844;9.156;2024-02-16T07:11:17;10.00;99.90
790;DHT22;378;48.844;9.156;2024-02-16T07:13:45;10.00;99.90
790;DHT22;378;48.844;9.156;2024-02-16T07:16:12;10.00;99.90
790;DHT22;378;48.844;9.156;2024-02-16T07:18:39;10.10;99.90
790;DHT22;378;48.844;9.156;2024-02-16T07:21:08;10.10;99.90
790;DHT22;378;48.844;9.156;2024-02-16T07:23:35;10.10;99.90
790;DHT22;378;48.844;9.156;2024-02-16T07:26:02;10.10;99.90
790;DHT22;378;48.844;9.156;2024-02-16T07:28:29;10.20;99.90
790;DHT22;378;48.844;9.156;2024-02-16T07:30:58;10.20;99.90
790;DHT22;378;48.844;9.156;2024-02-16T07:33:25;10.20;99.90
790;DHT22;378;48.844;9.156;2024-02-16T07:35:53;10.20;99.90
790;DHT22;378;48.844;9.156;2024-02-16T07:38:20;10.20;99.90
790;DHT22;378;48.844;9.156;2024-02-16T07:40:48;10.20;99.90
790;DHT22;378;48.844;9.156;2024-02-16T07:43:16;10.20;99.90
790;DHT22;378;48.844;9.156;2024-02-16T07:45:43;10.20;99.90
790;DHT22;378;48.844;9.156;2024-02-16T07:48:11;10.20;99.90
790;DHT22;378;48.844;9.156;2024-02-16T07:50:37;10.10;99.90
790;DHT22;378;48.844;9.156;2024-02-16T07:53:04;10.10;99.90
790;DHT22;378;48.844;9.156;2024-02-16T07:55:31;10.10;99.90
790;DHT22;378;48.844;9.156;2024-02-16T07:57:58;10.10;99.90
790;DHT22;378;48.844;9.156;2024-02-16T08:00:25;10.10;99.90
790;DHT22;378;48.844;9.156;2024-02-16T08:02:53;10.00;99.90
790;DHT22;378;48.844;9.156;2024-02-16T08:05:21;9.90;99.90
790;DHT22;378;48.844;9.156;2024-02-16T08:07:49;10.00;99.90
790;DHT22;378;48.844;9.156;2024-02-16T08:10:19;9.90;99.90
790;DHT22;378;48.844;9.156;2024-02-16T08:12:46;10.00;99.90
790;DHT22;378;48.844;9.156;2024-02-16T08:15:13;10.10;99.90
790;DHT22;378;48.844;9.156;2024-02-16T08:17:40;10.10;99.90
790;DHT22;378;48.844;9.156;2024-02-16T08:20:08;10.20;99.90
790;DHT22;378;48.844;9.156;2024-02-16T08:22:37;10.30;99.90
790;DHT22;378;48.844;9.156;2024-02-16T08:25:05;10.30;99.90
790;DHT22;378;48.844;9.156;2024-02-16T08:27:32;10.50;99.90
790;DHT22;378;48.844;9.156;2024-02-16T08:29:59;10.60;99.90
790;DHT22;378;48.844;9.156;2024-02-16T08:32:27;10.70;99.90
790;DHT22;378;48.844;9.156;2024-02-16T08:34:55;10.80;99.90
790;DHT22;378;48.844;9.156;2024-02-16T08:37:24;10.90;99.90
790;DHT22;378;48.844;9.156;2024-02-16T08:39:52;11.00;99.90
790;DHT22;378;48.844;9.156;2024-02-16T08:42:19;11.10;99.90
790;DHT22;378;48.844;9.156;2024-02-16T08:44:48;11.20;99.90
790;DHT22;378;48.844;9.156;2024-02-16T08:47:15;11.30;99.90
790;DHT22;378;48.844;9.156;2024-02-16T08:49:42;11.30;99.90
790;DHT22;378;48.844;9.156;2024-02-16T08:52:09;11.40;99.90
790;DHT22;378;48.844;9.156;2024-02-16T08:54:35;11.50;99.90
790;DHT22;378;48.844;9.156;2024-02-16T08:57:04;11.50;99.90
790;DHT22;378;48.844;9.156;2024-02-16T08:59:32;11.60;99.90
790;DHT22;378;48.844;9.156;2024-02-16T09:01:59;11.60;99.90
790;DHT22;378;48.844;9.156;2024-02-16T09:04:26;11.70;99.90
790;DHT22;378;48.844;9.156;2024-02-16T09:06:53;11.70;99.90
790;DHT22;378;48.844;9.156;2024-02-16T09:09:20;11.70;99.90
790;DHT22;378;48.844;9.156;2024-02-16T09:11:48;11.70;99.90
790;DHT22;378;48.844;9.156;2024-02-16T09:14:16;11.80;99.90
790;DHT22;378;48.844;9.156;2024-02-16T09:16:43;11.90;99.90
790;DHT22;378;48.844;9.156;2024-02-16T09:19:10;12.00;99.90
790;DHT22;378;48.844;9.156;2024-02-16T09:21:37;12.20;99.90
790;DHT22;378;48.844;9.156;2024-02-16T09:24:05;12.40;99.90
790;DHT22;378;48.844;9.156;2024-02-16T09:26:35;12.40;99.90
790;DHT22;378;48.844;9.156;2024-02-16T09:29:02;12.60;99.90
790;DHT22;378;48.844;9.156;2024-02-16T09:31:31;12.60;99.90
790;DHT22;378;48.844;9.156;2024-02-16T09:33:58;12.70;99.90
790;DHT22;378;48.844;9.156;2024-02-16T09:36:25;12.80;99.90
790;DHT22;378;48.844;9.156;2024-02-16T09:38:52;12.80;99.90
790;DHT22;378;48.844;9.156;2024-02-16T09:41:19;12.90;99.90
790;DHT22;378;48.844;9.156;2024-02-16T09:43:46;13.10;99.90
790;DHT22;378;48.844;9.156;2024-02-16T09:46:13;13.20;99.90
790;DHT22;378;48.844;9.156;2024-02-16T09:48:43;13.30;99.90
790;DHT22;378;48.844;9.156;2024-02-16T09:51:14;13.40;99.90
790;DHT22;378;48.844;9.156;2024-02-16T09:53:42;13.50;99.90
790;DHT22;378;48.844;9.156;2024-02-16T09:56:09;13.60;99.90
790;DHT22;378;48.844;9.156;2024-02-16T09:58:35;13.60;99.90
790;DHT22;378;48.844;9.156;2024-02-16T10:01:02;13.70;99.90
790;DHT22;378;48.844;9.156;2024-02-16T10:03:31;13.80;99.90
790;DHT22;378;48.844;9.156;2024-02-16T10:06:08;14.00;99.90
790;DHT22;378;48.844;9.156;2024-02-16T10:08:46;14.20;99.90
790;DHT22;378;48.844;9.156;2024-02-16T10:11:15;14.30;99.90
790;DHT22;378;48.844;9.156;2024-02-16T10:13:42;14.60;99.90
790;DHT22;378;48.844;9.156;2024-02-16T10:16:10;14.80;99.90
790;DHT22;378;48.844;9.156;2024-02-16T10:18:37;14.90;99.90
790;DHT22;378;48.844;9.156;2024-02-16T10:21:05;15.00;99.90
790;DHT22;378;48.844;9.156;2024-02-16T10:23:34;15.20;99.90
790;DHT22;378;48.844;9.156;2024-02-16T10:26:01;15.30;99.90
790;DHT22;378;48.844;9.156;2024-02-16T10:28:28;15.40;99.90
790;DHT22;378;48.844;9.156;2024-02-16T10:30:57;15.40;99.90
790;DHT22;378;48.844;9.156;2024-02-16T10:33:25;15.50;99.90
790;DHT22;378;48.844;9.156;2024-02-16T10:35:55;15.60;99.90
790;DHT22;378;48.844;9.156;2024-02-16T10:38:23;15.80;99.90
790;DHT22;378;48.844;9.156;2024-02-16T10:40:53;15.90;99.90
790;DHT22;378;48.844;9.156;2024-02-16T10:43:23;16.00;99.90
790;DHT22;378;48.844;9.156;2024-02-16T10:45:51;16.10;99.90
790;DHT22;378;48.844;9.156;2024-02-16T10:48:19;16.20;99.90
790;DHT22;378;48.844;9.156;2024-02-16T10:50:46;16.30;99.90
790;DHT22;378;48.844;9.156;2024-02-16T10:53:21;16.50;99.90
790;DHT22;378;48.844;9.156;2024-02-16T10:55:49;16.50;99.90
790;DHT22;378;48.844;9.156;2024-02-16T10:58:18;16.50;99.90
790;DHT22;378;48.844;9.156;2024-02-16T11:00:52;16.50;99.90
790;DHT22;378;48.844;9.156;2024-02-16T11:03:23;16.50;99.90
790;DHT22;378;48.844;9.156;2024-02-16T11:05:51;16.60;99.90
790;DHT22;378;48.844;9.156;2024-02-16T11:08:20;16.60;99.90
790;DHT22;378;48.844;9.156;2024-02-16T11:10:57;16.60;99.90
790;DHT22;378;48.844;9.156;2024-02-16T11:13:26;16.50;99.90
790;DHT22;378;48.844;9.156;2024-02-16T11:15:57;16.50;99.90
790;DHT22;378;48.844;9.156;2024-02-16T11:18:25;16.60;99.90
790;DHT22;378;48.844;9.156;2024-02-16T11:20:52;16.60;99.90
790;DHT22;378;48.844;9.156;2024-02-16T11:23:26;16.60;99.90
790;DHT22;378;48.844;9.156;2024-02-16T11:25:53;16.60;99.90
790;DHT22;378;48.844;9.156;2024-02-16T11:28:21;16.60;99.90
790;DHT22;378;48.844;9.156;2024-02-16T11:30:49;16.60;99.90
790;DHT22;378;48.844;9.156;2024-02-16T11:33:17;16.60;99.90
790;DHT22;378;48.844;9.156;2024-02-16T11:35:52;16.50;99.90
790;DHT22;378;48.844;9.156;2024-02-16T11:38:19;16.50;99.90
790;DHT22;378;48.844;9.156;2024-02-16T11:40:53;16.50;99.90
790;DHT22;378;48.844;9.156;2024-02-16T11:43:20;16.40;99.90
790;DHT22;378;48.844;9.156;2024-02-16T11:45:50;16.50;99.90
790;DHT22;378;48.844;9.156;2024-02-16T11:48:19;16.50;99.90
790;DHT22;378;48.844;9.156;2024-02-16T11:50:46;16.40;99.90
790;DHT22;378;48.844;9.156;2024-02-16T11:53:16;16.40;99.90
790;DHT22;378;48.844;9.156;2024-02-16T11:55:46;16.30;99.90
790;DHT22;378;48.844;9.156;2024-02-16T11:58:15;16.20;99.90
790;DHT22;378;48.844;9.156;2024-02-16T12:00:42;16.20;99.90
790;DHT22;378;48.844;9.156;2024-02-16T12:03:10;16.10;99.90
790;DHT22;378;48.844;9.156;2024-02-16T12:05:37;16.10;99.90
790;DHT22;378;48.844;9.156;2024-02-16T12:08:06;16.10;99.90
790;DHT22;378;48.844;9.156;2024-02-16T12:10:33;16.10;99.90
790;DHT22;378;48.844;9.156;2024-02-16T12:13:00;16.10;99.90
790;DHT22;378;48.844;9.156;2024-02-16T12:15:27;16.10;99.90
790;DHT22;378;48.844;9.156;2024-02-16T12:18:00;16.20;99.90
790;DHT22;378;48.844;9.156;2024-02-16T12:20:30;16.30;99.90
790;DHT22;378;48.844;9.156;2024-02-16T12:22:57;16.40;99.90
790;DHT22;378;48.844;9.156;2024-02-16T12:25:27;16.50;99.90
790;DHT22;378;48.844;9.156;2024-02-16T12:27:54;16.40;99.90
790;DHT22;378;48.844;9.156;2024-02-16T12:30:21;16.40;99.90
790;DHT22;378;48.844;9.156;2024-02-16T12:32:48;16.40;99.90
790;DHT22;378;48.844;9.156;2024-02-16T12:35:15;16.40;99.90
790;DHT22;378;48.844;9.156;2024-02-16T12:37:45;16.30;99.90
790;DHT22;378;48.844;9.156;2024-02-16T12:40:12;16.30;99.90
790;DHT22;378;48.844;9.156;2024-02-16T12:42:39;16.30;99.90
790;DHT22;378;48.844;9.156;2024-02-16T12:45:06;16.30;99.90
790;DHT22;378;48.844;9.156;2024-02-16T12:47:33;16.30;99.90
790;DHT22;378;48.844;9.156;2024-02-16T12:50:00;16.30;99.90
790;DHT22;378;48.844;9.156;2024-02-16T12:52:27;16.30;99.90
790;DHT22;378;48.844;9.156;2024-02-16T12:54:56;16.30;99.90
790;DHT22;378;48.844;9.156;2024-02-16T12:57:24;16.30;99.90
790;DHT22;378;48.844;9.156;2024-02-16T12:59:51;16.30;99.90
790;DHT22;378;48.844;9.156;2024-02-16T13:02:18;16.30;99.90
790;DHT22;378;48.844;9.156;2024-02-16T13:04:45;16.30;99.90
790;DHT22;378;48.844;9.156;2024-02-16T13:07:12;16.30;99.90
790;DHT22;378;48.844;9.156;2024-02-16T13:09:38;16.40;99.90
790;DHT22;378;48.844;9.156;2024-02-16T13:12:08;16.40;99.90
790;DHT22;378;48.844;9.156;2024-02-16T13:14:35;16.50;99.90
790;DHT22;378;48.844;9.156;2024-02-16T13:17:02;16.40;99.90
790;DHT22;378;48.844;9.156;2024-02-16T13:19:29;16.40;99.90
790;DHT22;378;48.844;9.156;2024-02-16T13:21:56;16.50;99.90
790;DHT22;378;48.844;9.156;2024-02-16T13:24:23;16.60;99.90
790;DHT22;378;48.844;9.156;2024-02-16T13:26:50;16.60;99.90
790;DHT22;378;48.844;9.156;2024-02-16T13:29:18;16.60;99.90
790;DHT22;378;48.844;9.156;2024-02-16T13:31:45;16.60;99.90
790;DHT22;378;48.844;9.156;2024-02-16T13:34:12;16.70;99.90
790;DHT22;378;48.844;9.156;2024-02-16T13:36:40;16.70;99.90
790;DHT22;378;48.844;9.156;2024-02-16T13:39:07;16.80;99.90
790;DHT22;378;48.844;9.156;2024-02-16T13:41:34;16.80;99.90
790;DHT22;378;48.844;9.156;2024-02-16T13:44:01;16.80;99.90
790;DHT22;378;48.844;9.156;2024-02-16T13:46:31;16.80;99.90
790;DHT22;378;48.844;9.156;2024-02-16T13:48:58;16.80;99.90
790;DHT22;378;48.844;9.156;2024-02-16T13:51:25;16.80;99.90
790;DHT22;378;48.844;9.156;2024-02-16T13:53:52;16.80;99.90
790;DHT22;378;48.844;9.156;2024-02-16T13:56:18;16.90;99.90
790;DHT22;378;48.844;9.156;2024-02-16T13:58:45;16.90;99.90
790;DHT22;378;48.844;9.156;2024-02-16T14:01:14;16.80;99.90
790;DHT22;378;48.844;9.156;2024-02-16T14:03:42;16.70;99.90
790;DHT22;378;48.844;9.156;2024-02-16T14:06:09;16.80;99.90
790;DHT22;378;48.844;9.156;2024-02-16T14:08:37;16.60;99.90
790;DHT22;378;48.844;9.156;2024-02-16T14:11:07;16.50;99.90
790;DHT22;378;48.844;9.156;2024-02-16T14:13:34;16.60;99.90
790;DHT22;378;48.844;9.156;2024-02-16T14:16:01;16.60;99.90
790;DHT22;378;48.844;9.156;2024-02-16T14:18:28;16.50;99.90
790;DHT22;378;48.844;9.156;2024-02-16T14:20:56;16.40;99.90
790;DHT22;378;48.844;9.156;2024-02-16T14:23:23;16.30;99.90
790;DHT22;378;48.844;9.156;2024-02-16T14:25:50;16.40;99.90
790;DHT22;378;48.844;9.156;2024-02-16T14:28:17;16.40;99.90
790;DHT22;378;48.844;9.156;2024-02-16T14:30:44;16.30;99.90
790;DHT22;378;48.844;9.156;2024-02-16T14:33:11;16.30;99.90
790;DHT22;378;48.844;9.156;2024-02-16T14:35:38;16.30;99.90
790;DHT22;378;48.844;9.156;2024-02-16T14:38:07;16.20;99.90
790;DHT22;378;48.844;9.156;2024-02-16T14:40:33;16.20;99.90
790;DHT22;378;48.844;9.156;2024-02-16T14:43:01;16.20;99.90
790;DHT22;378;48.844;9.156;2024-02-16T14:45:27;16.10;99.90
790;DHT22;378;48.844;9.156;2024-02-16T14:47:54;16.10;99.90
790;DHT22;378;48.844;9.156;2024-02-16T14:50:22;16.10;99.90
790;DHT22;378;48.844;9.156;2024-02-16T14:52:49;16.10;99.90
790;DHT22;378;48.844;9.156;2024-02-16T14:55:17;16.10;99.90
790;DHT22;378;48.844;9.156;2024-02-16T14:57:44;16.10;99.90
790;DHT22;378;48.844;9.156;2024-02-16T15:00:12;16.10;99.90
790;DHT22;378;48.844;9.156;2024-02-16T15:02:40;16.00;99.90
790;DHT22;378;48.844;9.156;2024-02-16T15:05:08;16.00;99.90
790;DHT22;378;48.844;9.156;2024-02-16T15:07:35;16.00;99.90
790;DHT22;378;48.844;9.156;2024-02-16T15:10:02;16.00;99.90
790;DHT22;378;48.844;9.156;2024-02-16T15:12:30;16.00;99.90
790;DHT22;378;48.844;9.156;2024-02-16T15:14:57;15.90;99.90
790;DHT22;378;48.844;9.156;2024-02-16T15:17:25;15.90;99.90
790;DHT22;378;48.844;9.156;2024-02-16T15:19:53;15.80;99.90
790;DHT22;378;48.844;9.156;2024-02-16T15:22:19;15.70;99.90
790;DHT22;378;48.844;9.156;2024-02-16T15:24:46;15.70;99.90
790;DHT22;378;48.844;9.156;2024-02-16T15:27:13;15.80;99.90
790;DHT22;378;48.844;9.156;2024-02-16T15:29:41;15.80;99.90
790;DHT22;378;48.844;9.156;2024-02-16T15:32:10;15.80;99.90
790;DHT22;378;48.844;9.156;2024-02-16T15:34:36;15.70;99.90
790;DHT22;378;48.844;9.156;2024-02-16T15:37:04;15.60;99.90
790;DHT22;378;48.844;9.156;2024-02-16T15:39:31;15.70;99.90
790;DHT22;378;48.844;9.156;2024-02-16T15:41:58;15.70;99.90
790;DHT22;378;48.844;9.156;2024-02-16T15:44:25;15.80;99.90
790;DHT22;378;48.844;9.156;2024-02-16T15:46:54;15.70;99.90
790;DHT22;378;48.844;9.156;2024-02-16T15:49:20;15.70;99.90
790;DHT22;378;48.844;9.156;2024-02-16T15:51:47;15.70;99.90
790;DHT22;378;48.844;9.156;2024-02-16T15:54:14;15.60;99.90
790;DHT22;378;48.844;9.156;2024-02-16T15:56:41;15.60;99.90
790;DHT22;378;48.844;9.156;2024-02-16T15:59:08;15.50;99.90
790;DHT22;378;48.844;9.156;2024-02-16T16:01:35;15.40;99.90
790;DHT22;378;48.844;9.156;2024-02-16T16:04:03;15.30;99.90
790;DHT22;378;48.844;9.156;2024-02-16T16:06:30;15.30;99.90
790;DHT22;378;48.844;9.156;2024-02-16T16:08:58;15.30;99.90
790;DHT22;378;48.844;9.156;2024-02-16T16:11:24;15.30;99.90
790;DHT22;378;48.844;9.156;2024-02-16T16:13:51;15.20;99.90
790;DHT22;378;48.844;9.156;2024-02-16T16:16:19;15.20;99.90
790;DHT22;378;48.844;9.156;2024-02-16T16:18:46;15.10;99.90
790;DHT22;378;48.844;9.156;2024-02-16T16:21:14;15.10;99.90
790;DHT22;378;48.844;9.156;2024-02-16T16:23:40;15.00;99.90
790;DHT22;378;48.844;9.156;2024-02-16T16:26:07;15.00;99.90
790;DHT22;378;48.844;9.156;2024-02-16T16:28:35;15.00;99.90
790;DHT22;378;48.844;9.156;2024-02-16T16:31:02;15.00;99.90
790;DHT22;378;48.844;9.156;2024-02-16T16:33:28;15.00;99.90
790;DHT22;378;48.844;9.156;2024-02-16T16:35:55;14.80;99.90